sensor_id;sensor_type;location;lat;lon;timestamp;pressure;altitude;pressure_sealevel;temperature;humidity
52975;BME280;38839;45.186;5.720;2023-07-08T00:00:53;99125.47;;;25.34;95.70
52975;BME280;38839;45.186;5.720;2023-07-08T00:03:19;99108.09;;;25.41;95.69
52975;BME280;38839;45.186;5.720;2023-07-08T00:05:46;99093.09;;;25.39;95.46
52975;BME280;38839;45.186;5.720;2023-07-08T00:08:16;99104.94;;;25.35;95.48
52975;BME280;38839;45.186;5.720;2023-07-08T00:10:42;99106.09;;;25.30;95.42
52975;BME280;38839;45.186;5.720;2023-07-08T00:13:09;99103.63;;;25.27;95.39
52975;BME280;38839;45.186;5.720;2023-07-08T00:15:35;99101.72;;;25.29;95.37
52975;BME280;38839;45.186;5.720;2023-07-08T00:18:01;99100.13;;;25.27;94.99
52975;BME280;38839;45.186;5.720;2023-07-08T00:20:51;99106.31;;;25.27;94.92
52975;BME280;38839;45.186;5.720;2023-07-08T00:23:17;99123.09;;;25.29;94.46
52975;BME280;38839;45.186;5.720;2023-07-08T00:25:47;99119.66;;;25.27;94.71
52975;BME280;38839;45.186;5.720;2023-07-08T00:28:15;99122.63;;;25.23;95.15
52975;BME280;38839;45.186;5.720;2023-07-08T00:30:41;99122.50;;;25.10;95.40
52975;BME280;38839;45.186;5.720;2023-07-08T00:33:06;99134.25;;;25.07;95.68
52975;BME280;38839;45.186;5.720;2023-07-08T00:35:37;99132.63;;;25.05;94.82
52975;BME280;38839;45.186;5.720;2023-07-08T00:38:32;99149.59;;;25.04;94.66
52975;BME280;38839;45.186;5.720;2023-07-08T00:41:06;99146.75;;;25.07;94.56
52975;BME280;38839;45.186;5.720;2023-07-08T00:43:40;99151.22;;;25.06;94.41
52975;BME280;38839;45.186;5.720;2023-07-08T00:54:54;99163.44;;;24.96;91.02
52975;BME280;38839;45.186;5.720;2023-07-08T00:57:22;99162.00;;;24.76;91.42
52975;BME280;38839;45.186;5.720;2023-07-08T01:00:16;99150.25;;;24.79;91.77
52975;BME280;38839;45.186;5.720;2023-07-08T01:02:48;99125.69;;;24.59;100.00
52975;BME280;38839;45.186;5.720;2023-07-08T01:05:23;99128.00;;;24.35;100.00
52975;BME280;38839;45.186;5.720;2023-07-08T01:07:54;99143.41;;;24.30;100.00
52975;BME280;38839;45.186;5.720;2023-07-08T01:10:33;99112.44;;;24.27;100.00
52975;BME280;38839;45.186;5.720;2023-07-08T01:13:04;99106.03;;;24.16;100.00
52975;BME280;38839;45.186;5.720;2023-07-08T01:15:37;99094.06;;;24.23;100.00
52975;BME280;38839;45.186;5.720;2023-07-08T01:18:04;99081.13;;;24.31;100.00
52975;BME280;38839;45.186;5.720;2023-07-08T01:20:30;99081.31;;;24.42;100.00
52975;BME280;38839;45.186;5.720;2023-07-08T01:22:55;99050.13;;;24.59;100.00
52975;BME280;38839;45.186;5.720;2023-07-08T01:25:20;99060.97;;;24.84;100.00
52975;BME280;38839;45.186;5.720;2023-07-08T01:27:49;99052.59;;;24.90;99.37
52975;BME280;38839;45.186;5.720;2023-07-08T01:30:17;99050.47;;;24.96;98.74
52975;BME280;38839;45.186;5.720;2023-07-08T01:32:48;99046.84;;;24.97;99.89
52975;BME280;38839;45.186;5.720;2023-07-08T01:35:15;99047.78;;;24.96;99.57
52975;BME280;38839;45.186;5.720;2023-07-08T01:37:43;99049.53;;;24.82;98.94
52975;BME280;38839;45.186;5.720;2023-07-08T01:40:16;99048.78;;;24.80;98.63
52975;BME280;38839;45.186;5.720;2023-07-08T01:42:42;99037.16;;;24.81;99.63
52975;BME280;38839;45.186;5.720;2023-07-08T01:45:16;99029.50;;;24.89;98.78
52975;BME280;38839;45.186;5.720;2023-07-08T01:47:43;99043.44;;;24.95;97.83
52975;BME280;38839;45.186;5.720;2023-07-08T01:50:11;99042.56;;;24.94;100.00
52975;BME280;38839;45.186;5.720;2023-07-08T01:52:36;99053.94;;;24.69;100.00
52975;BME280;38839;45.186;5.720;2023-07-08T01:55:02;99055.81;;;24.38;100.00
52975;BME280;38839;45.186;5.720;2023-07-08T01:57:28;99054.25;;;24.05;100.00
52975;BME280;38839;45.186;5.720;2023-07-08T01:59:53;99046.41;;;23.88;100.00
52975;BME280;38839;45.186;5.720;2023-07-08T02:02:18;99053.16;;;23.63;100.00
52975;BME280;38839;45.186;5.720;2023-07-08T02:04:44;99050.09;;;23.55;100.00
52975;BME280;38839;45.186;5.720;2023-07-08T02:07:09;99043.66;;;23.43;100.00
52975;BME280;38839;45.186;5.720;2023-07-08T02:09:35;99050.19;;;23.38;100.00
52975;BME280;38839;45.186;5.720;2023-07-08T02:12:00;99062.38;;;23.42;100.00
52975;BME280;38839;45.186;5.720;2023-07-08T02:14:25;99051.84;;;23.40;100.00
52975;BME280;38839;45.186;5.720;2023-07-08T02:16:51;99060.75;;;23.55;100.00
52975;BME280;38839;45.186;5.720;2023-07-08T02:19:17;99066.63;;;23.60;100.00
52975;BME280;38839;45.186;5.720;2023-07-08T02:21:42;99057.44;;;23.66;100.00
52975;BME280;38839;45.186;5.720;2023-07-08T02:24:08;99051.66;;;23.74;100.00
52975;BME280;38839;45.186;5.720;2023-07-08T02:26:33;99050.56;;;23.78;100.00
52975;BME280;38839;45.186;5.720;2023-07-08T02:28:59;99051.91;;;23.85;100.00
52975;BME280;38839;45.186;5.720;2023-07-08T02:31:25;99061.28;;;23.92;100.00
52975;BME280;38839;45.186;5.720;2023-07-08T02:33:51;99065.28;;;23.99;100.00
52975;BME280;38839;45.186;5.720;2023-07-08T02:36:17;99062.34;;;24.04;100.00
52975;BME280;38839;45.186;5.720;2023-07-08T02:38:42;99055.00;;;24.07;100.00
52975;BME280;38839;45.186;5.720;2023-07-08T02:41:07;99055.78;;;24.09;100.00
52975;BME280;38839;45.186;5.720;2023-07-08T02:43:33;99059.41;;;24.08;100.00
52975;BME280;38839;45.186;5.720;2023-07-08T02:45:58;99067.41;;;24.08;100.00
52975;BME280;38839;45.186;5.720;2023-07-08T02:48:24;99067.56;;;24.05;100.00
52975;BME280;38839;45.186;5.720;2023-07-08T02:50:49;99074.22;;;23.98;100.00
52975;BME280;38839;45.186;5.720;2023-07-08T02:53:14;99078.88;;;23.95;100.00
52975;BME280;38839;45.186;5.720;2023-07-08T02:55:40;99071.16;;;23.90;100.00
52975;BME280;38839;45.186;5.720;2023-07-08T02:58:08;99082.66;;;23.90;99.97
52975;BME280;38839;45.186;5.720;2023-07-08T03:00:33;99081.81;;;23.90;99.66
52975;BME280;38839;45.186;5.720;2023-07-08T03:02:59;99080.09;;;23.89;99.02
52975;BME280;38839;45.186;5.720;2023-07-08T03:05:26;99081.13;;;23.86;98.67
52975;BME280;38839;45.186;5.720;2023-07-08T03:07:51;99097.19;;;23.85;98.01
52975;BME280;38839;45.186;5.720;2023-07-08T03:10:16;99098.94;;;23.86;97.64
52975;BME280;38839;45.186;5.720;2023-07-08T03:12:42;99088.19;;;23.87;97.13
52975;BME280;38839;45.186;5.720;2023-07-08T03:15:07;99085.69;;;23.84;95.63
52975;BME280;38839;45.186;5.720;2023-07-08T03:17:33;99092.06;;;23.82;96.31
52975;BME280;38839;45.186;5.720;2023-07-08T03:19:58;99100.06;;;23.82;95.72
52975;BME280;38839;45.186;5.720;2023-07-08T03:22:24;99106.31;;;23.81;95.50
52975;BME280;38839;45.186;5.720;2023-07-08T03:24:49;99110.03;;;23.78;95.23
52975;BME280;38839;45.186;5.720;2023-07-08T03:27:15;99117.75;;;23.67;95.33
52975;BME280;38839;45.186;5.720;2023-07-08T03:29:41;99128.50;;;23.65;95.72
52975;BME280;38839;45.186;5.720;2023-07-08T03:32:11;99141.47;;;23.72;95.48
52975;BME280;38839;45.186;5.720;2023-07-08T03:34:37;99134.16;;;23.75;96.34
52975;BME280;38839;45.186;5.720;2023-07-08T03:37:03;99117.94;;;23.80;96.13
52975;BME280;38839;45.186;5.720;2023-07-08T03:39:31;99119.84;;;23.78;97.35
52975;BME280;38839;45.186;5.720;2023-07-08T03:42:00;99130.28;;;23.81;99.28
52975;BME280;38839;45.186;5.720;2023-07-08T03:44:25;99130.97;;;23.84;98.43
52975;BME280;38839;45.186;5.720;2023-07-08T03:46:51;99136.16;;;23.87;96.30
52975;BME280;38839;45.186;5.720;2023-07-08T03:49:17;99137.56;;;23.93;93.54
52975;BME280;38839;45.186;5.720;2023-07-08T03:51:50;99133.00;;;23.95;92.27
52975;BME280;38839;45.186;5.720;2023-07-08T03:54:17;99135.09;;;23.90;91.13
52975;BME280;38839;45.186;5.720;2023-07-08T03:56:43;99140.94;;;23.81;90.83
52975;BME280;38839;45.186;5.720;2023-07-08T03:59:09;99136.66;;;23.78;90.39
52975;BME280;38839;45.186;5.720;2023-07-08T04:01:35;99145.63;;;23.77;89.96
52975;BME280;38839;45.186;5.720;2023-07-08T04:04:01;99133.47;;;23.72;89.73
52975;BME280;38839;45.186;5.720;2023-07-08T04:06:27;99137.25;;;23.67;90.34
52975;BME280;38839;45.186;5.720;2023-07-08T04:08:56;99135.72;;;23.63;90.17
52975;BME280;38839;45.186;5.720;2023-07-08T04:11:23;99143.09;;;23.58;90.46
52975;BME280;38839;45.186;5.720;2023-07-08T04:13:49;99131.50;;;23.59;90.21
52975;BME280;38839;45.186;5.720;2023-07-08T04:16:43;99133.22;;;23.60;89.67
52975;BME280;38839;45.186;5.720;2023-07-08T04:19:12;99145.59;;;23.61;90.39
52975;BME280;38839;45.186;5.720;2023-07-08T04:21:40;99144.81;;;23.59;90.05
52975;BME280;38839;45.186;5.720;2023-07-08T04:24:09;99146.81;;;23.56;90.26
52975;BME280;38839;45.186;5.720;2023-07-08T04:26:34;99145.94;;;23.55;90.54
52975;BME280;38839;45.186;5.720;2023-07-08T04:29:01;99155.06;;;23.51;90.90
52975;BME280;38839;45.186;5.720;2023-07-08T04:31:26;99153.16;;;23.53;90.97
52975;BME280;38839;45.186;5.720;2023-07-08T04:33:52;99158.84;;;23.47;91.36
52975;BME280;38839;45.186;5.720;2023-07-08T04:36:17;99156.25;;;23.45;91.84
52975;BME280;38839;45.186;5.720;2023-07-08T04:38:42;99164.16;;;23.47;92.00
52975;BME280;38839;45.186;5.720;2023-07-08T04:41:12;99162.53;;;23.44;91.92
52975;BME280;38839;45.186;5.720;2023-07-08T04:43:37;99170.34;;;23.47;91.66
52975;BME280;38839;45.186;5.720;2023-07-08T04:46:05;99168.28;;;23.53;91.91
52975;BME280;38839;45.186;5.720;2023-07-08T04:48:40;99182.97;;;23.60;91.48
52975;BME280;38839;45.186;5.720;2023-07-08T04:51:05;99182.53;;;23.67;90.91
52975;BME280;38839;45.186;5.720;2023-07-08T04:53:31;99187.81;;;24.15;88.70
52975;BME280;38839;45.186;5.720;2023-07-08T04:55:56;99187.13;;;24.72;85.40
52975;BME280;38839;45.186;5.720;2023-07-08T04:58:22;99190.03;;;25.26;82.48
52975;BME280;38839;45.186;5.720;2023-07-08T05:00:47;99187.19;;;25.71;79.70
52975;BME280;38839;45.186;5.720;2023-07-08T05:03:13;99184.78;;;26.08;77.62
52975;BME280;38839;45.186;5.720;2023-07-08T05:05:38;99191.75;;;26.50;75.43
52975;BME280;38839;45.186;5.720;2023-07-08T05:08:04;99193.28;;;26.80;73.81
52975;BME280;38839;45.186;5.720;2023-07-08T05:10:29;99195.53;;;27.12;72.62
52975;BME280;38839;45.186;5.720;2023-07-08T05:12:55;99194.09;;;27.45;70.89
52975;BME280;38839;45.186;5.720;2023-07-08T05:15:20;99196.19;;;27.65;69.90
52975;BME280;38839;45.186;5.720;2023-07-08T05:17:45;99201.06;;;27.84;68.74
52975;BME280;38839;45.186;5.720;2023-07-08T05:20:12;99196.69;;;28.07;67.23
52975;BME280;38839;45.186;5.720;2023-07-08T05:22:38;99196.75;;;28.19;66.39
52975;BME280;38839;45.186;5.720;2023-07-08T05:25:04;99200.16;;;28.21;65.42
52975;BME280;38839;45.186;5.720;2023-07-08T05:27:30;99196.34;;;28.47;63.94
52975;BME280;38839;45.186;5.720;2023-07-08T05:29:56;99195.72;;;28.79;63.39
52975;BME280;38839;45.186;5.720;2023-07-08T05:32:21;99202.84;;;29.03;61.96
52975;BME280;38839;45.186;5.720;2023-07-08T05:34:47;99202.13;;;29.23;62.10
52975;BME280;38839;45.186;5.720;2023-07-08T05:37:13;99211.28;;;29.32;60.70
52975;BME280;38839;45.186;5.720;2023-07-08T05:39:39;99216.66;;;29.55;59.71
52975;BME280;38839;45.186;5.720;2023-07-08T05:42:05;99221.84;;;29.90;58.92
52975;BME280;38839;45.186;5.720;2023-07-08T05:44:30;99218.06;;;30.25;57.83
52975;BME280;38839;45.186;5.720;2023-07-08T05:46:56;99219.00;;;30.88;55.54
52975;BME280;38839;45.186;5.720;2023-07-08T05:49:21;99227.66;;;31.84;52.50
52975;BME280;38839;45.186;5.720;2023-07-08T05:51:46;99236.41;;;33.33;48.72
52975;BME280;38839;45.186;5.720;2023-07-08T05:54:13;99234.31;;;34.81;44.37
52975;BME280;38839;45.186;5.720;2023-07-08T05:56:38;99236.00;;;36.94;39.79
52975;BME280;38839;45.186;5.720;2023-07-08T05:59:04;99236.03;;;37.97;36.67
52975;BME280;38839;45.186;5.720;2023-07-08T06:01:30;99235.22;;;38.66;35.03
52975;BME280;38839;45.186;5.720;2023-07-08T06:03:56;99237.16;;;38.34;34.63
52975;BME280;38839;45.186;5.720;2023-07-08T06:06:24;99241.75;;;37.32;35.49
52975;BME280;38839;45.186;5.720;2023-07-08T06:08:50;99248.81;;;35.16;38.52
52975;BME280;38839;45.186;5.720;2023-07-08T06:11:15;99250.44;;;32.99;42.74
52975;BME280;38839;45.186;5.720;2023-07-08T06:13:41;99263.44;;;31.46;46.29
52975;BME280;38839;45.186;5.720;2023-07-08T06:16:06;99261.88;;;30.92;47.80
52975;BME280;38839;45.186;5.720;2023-07-08T06:18:32;99259.28;;;30.69;48.77
52975;BME280;38839;45.186;5.720;2023-07-08T06:20:58;99264.63;;;30.48;49.33
52975;BME280;38839;45.186;5.720;2023-07-08T06:23:24;99265.44;;;30.16;50.27
52975;BME280;38839;45.186;5.720;2023-07-08T06:25:50;99262.94;;;30.68;49.27
52975;BME280;38839;45.186;5.720;2023-07-08T06:28:15;99260.66;;;31.26;48.51
52975;BME280;38839;45.186;5.720;2023-07-08T06:30:41;99272.75;;;32.13;46.20
52975;BME280;38839;45.186;5.720;2023-07-08T06:33:06;99262.16;;;32.60;45.37
52975;BME280;38839;45.186;5.720;2023-07-08T06:35:32;99271.63;;;32.25;45.42
52975;BME280;38839;45.186;5.720;2023-07-08T06:37:57;99275.75;;;32.30;45.17
52975;BME280;38839;45.186;5.720;2023-07-08T06:40:23;99275.03;;;32.18;45.62
52975;BME280;38839;45.186;5.720;2023-07-08T06:42:48;99272.38;;;32.57;44.17
52975;BME280;38839;45.186;5.720;2023-07-08T06:45:14;99272.75;;;31.73;45.67
52975;BME280;38839;45.186;5.720;2023-07-08T06:47:39;99281.72;;;32.04;45.66
52975;BME280;38839;45.186;5.720;2023-07-08T06:50:05;99274.91;;;32.19;44.61
52975;BME280;38839;45.186;5.720;2023-07-08T06:52:31;99278.84;;;32.05;44.88
52975;BME280;38839;45.186;5.720;2023-07-08T06:55:00;99277.63;;;32.48;44.25
52975;BME280;38839;45.186;5.720;2023-07-08T06:57:26;99279.72;;;32.16;44.29
52975;BME280;38839;45.186;5.720;2023-07-08T06:59:52;99284.66;;;31.60;45.59
52975;BME280;38839;45.186;5.720;2023-07-08T07:02:17;99296.44;;;31.07;47.06
52975;BME280;38839;45.186;5.720;2023-07-08T07:04:43;99284.69;;;31.70;46.26
52975;BME280;38839;45.186;5.720;2023-07-08T07:07:09;99289.69;;;32.44;44.31
52975;BME280;38839;45.186;5.720;2023-07-08T07:09:34;99295.44;;;31.60;45.17
52975;BME280;38839;45.186;5.720;2023-07-08T07:12:00;99289.38;;;32.08;44.80
52975;BME280;38839;45.186;5.720;2023-07-08T07:14:25;99287.50;;;33.36;41.69
52975;BME280;38839;45.186;5.720;2023-07-08T07:16:51;99294.69;;;32.59;42.31
52975;BME280;38839;45.186;5.720;2023-07-08T07:19:16;99298.47;;;31.67;44.06
52975;BME280;38839;45.186;5.720;2023-07-08T07:21:41;99303.34;;;31.52;45.12
52975;BME280;38839;45.186;5.720;2023-07-08T07:24:07;99285.06;;;31.96;44.51
52975;BME280;38839;45.186;5.720;2023-07-08T07:26:32;99298.09;;;32.51;42.93
52975;BME280;38839;45.186;5.720;2023-07-08T07:28:58;99294.97;;;33.04;42.34
52975;BME280;38839;45.186;5.720;2023-07-08T07:31:23;99304.06;;;33.13;41.16
52975;BME280;38839;45.186;5.720;2023-07-08T07:33:49;99296.00;;;32.84;41.82
52975;BME280;38839;45.186;5.720;2023-07-08T07:36:15;99298.44;;;33.44;40.84
52975;BME280;38839;45.186;5.720;2023-07-08T07:38:40;99298.31;;;33.36;40.63
52975;BME280;38839;45.186;5.720;2023-07-08T07:41:06;99297.13;;;33.11;41.27
52975;BME280;38839;45.186;5.720;2023-07-08T07:43:33;99295.38;;;32.41;42.42
52975;BME280;38839;45.186;5.720;2023-07-08T07:45:59;99285.97;;;32.06;43.18
52975;BME280;38839;45.186;5.720;2023-07-08T07:48:24;99282.47;;;32.55;42.51
52975;BME280;38839;45.186;5.720;2023-07-08T07:50:50;99288.00;;;32.63;41.41
52975;BME280;38839;45.186;5.720;2023-07-08T07:53:18;99288.88;;;31.53;43.05
52975;BME280;38839;45.186;5.720;2023-07-08T07:55:44;99282.22;;;31.26;44.21
52975;BME280;38839;45.186;5.720;2023-07-08T07:58:09;99292.38;;;31.44;44.37
52975;BME280;38839;45.186;5.720;2023-07-08T08:00:37;99286.44;;;30.66;45.65
52975;BME280;38839;45.186;5.720;2023-07-08T08:03:03;99288.50;;;30.41;46.26
52975;BME280;38839;45.186;5.720;2023-07-08T08:05:29;99286.22;;;30.90;46.22
52975;BME280;38839;45.186;5.720;2023-07-08T08:07:54;99286.91;;;31.55;44.73
52975;BME280;38839;45.186;5.720;2023-07-08T08:10:19;99288.22;;;31.40;45.02
52975;BME280;38839;45.186;5.720;2023-07-08T08:12:45;99284.09;;;31.66;43.83
52975;BME280;38839;45.186;5.720;2023-07-08T08:15:13;99285.97;;;32.26;43.16
52975;BME280;38839;45.186;5.720;2023-07-08T08:17:39;99275.06;;;33.43;41.26
52975;BME280;38839;45.186;5.720;2023-07-08T08:20:05;99275.28;;;33.69;39.89
52975;BME280;38839;45.186;5.720;2023-07-08T08:22:30;99274.06;;;32.77;41.87
52975;BME280;38839;45.186;5.720;2023-07-08T08:24:56;99277.34;;;32.91;41.71
52975;BME280;38839;45.186;5.720;2023-07-08T08:27:21;99275.34;;;32.54;42.57
52975;BME280;38839;45.186;5.720;2023-07-08T08:29:47;99272.06;;;32.40;42.84
52975;BME280;38839;45.186;5.720;2023-07-08T08:32:12;99280.28;;;32.10;43.06
52975;BME280;38839;45.186;5.720;2023-07-08T08:34:39;99272.66;;;32.83;42.39
52975;BME280;38839;45.186;5.720;2023-07-08T08:37:04;99276.59;;;33.18;41.79
52975;BME280;38839;45.186;5.720;2023-07-08T08:39:30;99277.53;;;33.74;40.80
52975;BME280;38839;45.186;5.720;2023-07-08T08:41:56;99279.44;;;33.91;40.36
52975;BME280;38839;45.186;5.720;2023-07-08T08:44:29;99272.50;;;34.06;39.47
52975;BME280;38839;45.186;5.720;2023-07-08T08:47:20;99279.16;;;34.12;39.81
52975;BME280;38839;45.186;5.720;2023-07-08T08:52:43;99273.41;;;34.61;39.13
52975;BME280;38839;45.186;5.720;2023-07-08T08:55:13;99269.31;;;34.57;38.53
52975;BME280;38839;45.186;5.720;2023-07-08T08:57:51;99278.44;;;34.56;39.12
52975;BME280;38839;45.186;5.720;2023-07-08T09:00:42;99283.06;;;34.45;38.76
52975;BME280;38839;45.186;5.720;2023-07-08T09:03:16;99282.78;;;34.49;38.76
52975;BME280;38839;45.186;5.720;2023-07-08T09:05:43;99289.41;;;35.08;38.33
52975;BME280;38839;45.186;5.720;2023-07-08T09:08:18;99282.94;;;36.88;35.32
52975;BME280;38839;45.186;5.720;2023-07-08T09:11:15;99287.44;;;37.44;33.95
52975;BME280;38839;45.186;5.720;2023-07-08T09:13:42;99285.16;;;36.92;34.44
52975;BME280;38839;45.186;5.720;2023-07-08T09:19:11;99284.34;;;40.66;29.41
52975;BME280;38839;45.186;5.720;2023-07-08T09:22:01;99287.19;;;40.79;29.24
52975;BME280;38839;45.186;5.720;2023-07-08T09:26:59;99281.41;;;40.89;28.30
52975;BME280;38839;45.186;5.720;2023-07-08T09:29:26;99284.81;;;41.19;27.97
52975;BME280;38839;45.186;5.720;2023-07-08T09:31:51;99282.88;;;39.46;29.50
52975;BME280;38839;45.186;5.720;2023-07-08T09:34:22;99279.44;;;36.20;34.06
52975;BME280;38839;45.186;5.720;2023-07-08T09:36:49;99280.63;;;34.70;36.51
52975;BME280;38839;45.186;5.720;2023-07-08T09:39:17;99277.19;;;33.49;38.29
52975;BME280;38839;45.186;5.720;2023-07-08T09:41:44;99277.16;;;33.02;39.44
52975;BME280;38839;45.186;5.720;2023-07-08T09:46:45;99288.16;;;32.52;40.33
52975;BME280;38839;45.186;5.720;2023-07-08T09:49:27;99285.31;;;32.43;41.09
52975;BME280;38839;45.186;5.720;2023-07-08T09:51:53;99282.88;;;32.40;40.89
52975;BME280;38839;45.186;5.720;2023-07-08T09:54:23;99284.59;;;32.61;41.20
52975;BME280;38839;45.186;5.720;2023-07-08T09:57:04;99283.56;;;32.13;41.65
52975;BME280;38839;45.186;5.720;2023-07-08T09:59:46;99287.25;;;32.22;42.05
52975;BME280;38839;45.186;5.720;2023-07-08T10:04:54;99293.47;;;31.62;42.59
52975;BME280;38839;45.186;5.720;2023-07-08T10:07:20;99293.75;;;31.59;42.99
52975;BME280;38839;45.186;5.720;2023-07-08T10:09:51;99290.72;;;31.83;42.94
52975;BME280;38839;45.186;5.720;2023-07-08T10:12:24;99277.41;;;32.01;42.31
52975;BME280;38839;45.186;5.720;2023-07-08T10:14:54;99269.47;;;32.10;42.08
52975;BME280;38839;45.186;5.720;2023-07-08T10:17:22;99272.63;;;32.15;41.80
52975;BME280;38839;45.186;5.720;2023-07-08T10:19:48;99275.75;;;32.10;42.04
52975;BME280;38839;45.186;5.720;2023-07-08T10:22:25;99269.56;;;31.88;42.46
52975;BME280;38839;45.186;5.720;2023-07-08T10:27:39;99279.41;;;31.59;43.21
52975;BME280;38839;45.186;5.720;2023-07-08T10:35:16;99266.06;;;31.05;44.04
52975;BME280;38839;45.186;5.720;2023-07-08T10:40:49;99273.16;;;31.37;43.78
52975;BME280;38839;45.186;5.720;2023-07-08T10:51:26;99269.22;;;30.90;44.08
52975;BME280;38839;45.186;5.720;2023-07-08T10:56:43;99259.75;;;31.16;44.50
52975;BME280;38839;45.186;5.720;2023-07-08T11:02:02;99252.19;;;31.41;43.65
52975;BME280;38839;45.186;5.720;2023-07-08T11:05:24;99257.91;;;30.96;43.95
52975;BME280;38839;45.186;5.720;2023-07-08T11:07:34;99252.34;;;30.87;44.32
52975;BME280;38839;45.186;5.720;2023-07-08T11:10:07;99246.44;;;30.82;44.63
52975;BME280;38839;45.186;5.720;2023-07-08T11:13:22;99246.88;;;30.99;44.53
52975;BME280;38839;45.186;5.720;2023-07-08T11:15:33;99237.09;;;30.98;44.24
52975;BME280;38839;45.186;5.720;2023-07-08T11:18:37;99243.75;;;30.82;44.67
52975;BME280;38839;45.186;5.720;2023-07-08T11:21:17;99230.97;;;30.96;44.74
52975;BME280;38839;45.186;5.720;2023-07-08T11:23:49;99237.34;;;31.16;44.45
52975;BME280;38839;45.186;5.720;2023-07-08T11:26:32;99239.31;;;31.14;44.69
52975;BME280;38839;45.186;5.720;2023-07-08T11:29:00;99229.25;;;30.95;45.09
52975;BME280;38839;45.186;5.720;2023-07-08T11:31:32;99229.00;;;30.98;45.02
52975;BME280;38839;45.186;5.720;2023-07-08T11:33:59;99233.56;;;30.97;44.92
52975;BME280;38839;45.186;5.720;2023-07-08T11:36:26;99227.09;;;31.10;45.09
52975;BME280;38839;45.186;5.720;2023-07-08T11:38:55;99222.09;;;31.05;45.03
52975;BME280;38839;45.186;5.720;2023-07-08T11:41:26;99227.28;;;30.97;45.13
52975;BME280;38839;45.186;5.720;2023-07-08T11:43:59;99220.81;;;31.09;45.71
52975;BME280;38839;45.186;5.720;2023-07-08T11:46:31;99224.25;;;31.11;45.48
52975;BME280;38839;45.186;5.720;2023-07-08T11:49:12;99218.31;;;31.17;46.02
52975;BME280;38839;45.186;5.720;2023-07-08T11:51:43;99209.56;;;31.25;45.66
52975;BME280;38839;45.186;5.720;2023-07-08T11:54:27;99222.09;;;31.36;45.53
52975;BME280;38839;45.186;5.720;2023-07-08T11:59:24;99212.97;;;31.27;45.80
52975;BME280;38839;45.186;5.720;2023-07-08T12:02:01;99207.88;;;31.34;46.56
52975;BME280;38839;45.186;5.720;2023-07-08T12:04:33;99209.88;;;31.32;46.32
52975;BME280;38839;45.186;5.720;2023-07-08T12:07:16;99203.66;;;31.41;46.36
52975;BME280;38839;45.186;5.720;2023-07-08T12:09:49;99202.88;;;31.50;46.34
52975;BME280;38839;45.186;5.720;2023-07-08T12:12:34;99199.66;;;31.35;46.20
52975;BME280;38839;45.186;5.720;2023-07-08T12:15:22;99208.72;;;31.24;46.53
52975;BME280;38839;45.186;5.720;2023-07-08T12:17:50;99202.00;;;31.19;46.25
52975;BME280;38839;45.186;5.720;2023-07-08T12:20:21;99204.72;;;31.19;46.33
52975;BME280;38839;45.186;5.720;2023-07-08T12:22:47;99193.97;;;31.28;46.39
52975;BME280;38839;45.186;5.720;2023-07-08T12:25:15;99188.84;;;31.46;46.45
52975;BME280;38839;45.186;5.720;2023-07-08T12:27:43;99187.28;;;31.54;46.51
52975;BME280;38839;45.186;5.720;2023-07-08T12:30:10;99186.13;;;31.56;46.77
52975;BME280;38839;45.186;5.720;2023-07-08T12:32:37;99187.00;;;31.66;46.59
52975;BME280;38839;45.186;5.720;2023-07-08T12:35:02;99182.88;;;31.62;46.73
52975;BME280;38839;45.186;5.720;2023-07-08T12:37:30;99184.75;;;31.62;46.95
52975;BME280;38839;45.186;5.720;2023-07-08T12:39:57;99186.03;;;31.67;47.05
52975;BME280;38839;45.186;5.720;2023-07-08T12:42:28;99174.28;;;31.88;47.11
52975;BME280;38839;45.186;5.720;2023-07-08T12:44:54;99184.00;;;32.10;46.39
52975;BME280;38839;45.186;5.720;2023-07-08T12:47:20;99178.72;;;32.28;46.49
52975;BME280;38839;45.186;5.720;2023-07-08T12:49:45;99167.47;;;32.62;45.48
52975;BME280;38839;45.186;5.720;2023-07-08T12:52:22;99176.78;;;32.97;45.42
52975;BME280;38839;45.186;5.720;2023-07-08T12:54:47;99177.13;;;33.21;44.67
52975;BME280;38839;45.186;5.720;2023-07-08T12:57:15;99173.47;;;33.40;44.22
52975;BME280;38839;45.186;5.720;2023-07-08T12:59:41;99168.84;;;33.51;44.06
52975;BME280;38839;45.186;5.720;2023-07-08T13:02:18;99164.28;;;33.51;44.00
52975;BME280;38839;45.186;5.720;2023-07-08T13:04:45;99161.22;;;33.46;44.46
52975;BME280;38839;45.186;5.720;2023-07-08T13:07:28;99168.41;;;33.55;44.53
52975;BME280;38839;45.186;5.720;2023-07-08T13:09:56;99161.09;;;33.65;44.08
52975;BME280;38839;45.186;5.720;2023-07-08T13:12:22;99163.59;;;33.77;43.87
52975;BME280;38839;45.186;5.720;2023-07-08T13:14:51;99159.91;;;33.96;43.96
52975;BME280;38839;45.186;5.720;2023-07-08T13:17:17;99163.44;;;33.96;43.32
52975;BME280;38839;45.186;5.720;2023-07-08T13:19:43;99163.16;;;33.99;43.49
52975;BME280;38839;45.186;5.720;2023-07-08T13:22:14;99171.25;;;33.81;43.67
52975;BME280;38839;45.186;5.720;2023-07-08T13:24:41;99162.28;;;33.63;44.26
52975;BME280;38839;45.186;5.720;2023-07-08T13:27:13;99166.31;;;33.77;44.39
52975;BME280;38839;45.186;5.720;2023-07-08T13:29:41;99160.84;;;33.59;44.36
52975;BME280;38839;45.186;5.720;2023-07-08T13:32:09;99156.56;;;33.66;43.96
52975;BME280;38839;45.186;5.720;2023-07-08T13:34:35;99157.34;;;33.76;43.80
52975;BME280;38839;45.186;5.720;2023-07-08T13:37:00;99157.72;;;33.81;43.25
52975;BME280;38839;45.186;5.720;2023-07-08T13:39:31;99160.31;;;34.01;43.42
52975;BME280;38839;45.186;5.720;2023-07-08T13:41:59;99156.97;;;34.07;42.68
52975;BME280;38839;45.186;5.720;2023-07-08T13:44:25;99152.00;;;34.02;42.84
52975;BME280;38839;45.186;5.720;2023-07-08T13:49:25;99155.41;;;34.04;43.11
52975;BME280;38839;45.186;5.720;2023-07-08T13:52:22;99156.09;;;34.06;42.42
52975;BME280;38839;45.186;5.720;2023-07-08T13:57:17;99155.50;;;34.31;42.28
52975;BME280;38839;45.186;5.720;2023-07-08T13:59:43;99156.13;;;33.89;42.99
52975;BME280;38839;45.186;5.720;2023-07-08T14:02:30;99159.81;;;33.42;43.93